Time;durP1;ratioP1;P1;durP2;ratioP2;P2;SDS_P1;SDS_P2;PMS_P1;PMS_P2;Temp;Humidity;BMP_temperature;BMP_pressure;BME280_temperature;BME280_humidity;BME280_pressure;Samples;Min_cycle;Max_cycle;Signal;HPM_P1;HPM_P2
2023/04/26 00:01:16;;;;;;;14.03;3.93;;;;;;;2.21;100.00;101784.75;5079899;28;20527;-82
2023/04/26 00:03:41;;;;;;;9.35;3.72;;;;;;;2.18;100.00;101785.03;5096138;28;20114;-82
2023/04/26 00:06:12;;;;;;;8.52;3.63;;;;;;;2.17;100.00;101786.00;5096539;28;20063;-84
2023/04/26 00:08:38;;;;;;;10.10;3.80;;;;;;;2.14;100.00;101786.28;5096725;28;20379;-82
2023/04/26 00:11:04;;;;;;;9.45;3.85;;;;;;;2.10;100.00;101783.91;5096514;28;20038;-83
2023/04/26 00:13:29;;;;;;;12.97;4.27;;;;;;;2.07;100.00;101786.00;5079460;28;20383;-83
2023/04/26 00:15:54;;;;;;;10.30;3.53;;;;;;;2.02;100.00;101794.47;5095752;28;20122;-83
2023/04/26 00:18:20;;;;;;;12.60;4.03;;;;;;;1.99;100.00;101786.66;5079968;28;20126;-83
2023/04/26 00:20:46;;;;;;;12.37;4.10;;;;;;;1.98;100.00;101793.03;5095797;28;20491;-82
2023/04/26 00:23:11;;;;;;;12.60;3.90;;;;;;;1.96;100.00;101791.47;5096091;28;20043;-82
2023/04/26 00:25:37;;;;;;;12.15;4.00;;;;;;;1.94;100.00;101796.94;5095870;28;20455;-83
2023/04/26 00:28:02;;;;;;;10.87;3.77;;;;;;;1.91;100.00;101795.38;5079973;28;20031;-82
2023/04/26 00:30:28;;;;;;;9.10;3.55;;;;;;;1.90;100.00;101791.00;5079352;28;20032;-83
2023/04/26 00:32:54;;;;;;;10.33;3.70;;;;;;;1.89;100.00;101796.50;5078692;28;20035;-83
2023/04/26 00:35:19;;;;;;;9.97;3.73;;;;;;;1.85;100.00;101787.91;5079227;28;20361;-82
2023/04/26 00:37:45;;;;;;;7.90;3.50;;;;;;;1.83;100.00;101789.88;5095641;28;20020;-82
2023/04/26 00:40:11;;;;;;;10.73;3.90;;;;;;;1.83;100.00;101794.34;5114619;28;20032;-83
2023/04/26 00:42:38;;;;;;;8.55;3.50;;;;;;;1.79;100.00;101783.09;5095327;28;20507;-82
2023/04/26 00:45:05;;;;;;;7.50;3.35;;;;;;;1.79;100.00;101791.13;5095678;28;20479;-82
2023/04/26 00:47:30;;;;;;;10.88;3.60;;;;;;;1.74;100.00;101798.69;5095753;28;20039;-82
2023/04/26 00:49:56;;;;;;;7.97;3.10;;;;;;;1.69;100.00;101793.75;5095867;28;20395;-82
2023/04/26 00:52:22;;;;;;;8.77;3.30;;;;;;;1.64;100.00;101789.75;5080802;28;20096;-83
2023/04/26 00:54:48;;;;;;;10.88;3.80;;;;;;;1.60;100.00;101793.72;5099731;28;20161;-82
2023/04/26 00:57:14;;;;;;;10.40;3.40;;;;;;;1.54;100.00;101790.56;5082682;28;20027;-82
2023/04/26 00:59:40;;;;;;;7.33;3.37;;;;;;;1.52;100.00;101794.34;5099636;28;20391;-83
2023/04/26 01:02:05;;;;;;;12.13;3.63;;;;;;;1.48;100.00;101793.78;5083553;28;20038;-82
2023/04/26 01:04:32;;;;;;;18.07;4.10;;;;;;;1.44;100.00;101795.03;5082874;28;20024;-82
2023/04/26 01:06:59;;;;;;;11.43;3.65;;;;;;;1.41;100.00;101792.63;5082528;28;20031;-83
2023/04/26 01:09:24;;;;;;;12.13;4.20;;;;;;;1.40;100.00;101788.25;5099670;28;20027;-83
2023/04/26 01:11:51;;;;;;;8.97;4.00;;;;;;;1.39;100.00;101787.41;5082101;28;20100;-82
2023/04/26 01:14:17;;;;;;;10.95;4.00;;;;;;;1.38;100.00;101790.22;5099404;28;20093;-82
2023/04/26 01:16:45;;;;;;;10.68;3.78;;;;;;;1.33;100.00;101789.75;5117477;28;20035;-83
2023/04/26 01:19:11;;;;;;;12.00;4.30;;;;;;;1.29;100.00;101793.69;5099285;28;20118;-83
2023/04/26 01:21:38;;;;;;;8.85;3.88;;;;;;;1.23;100.00;101792.38;5065674;28;20042;-82
2023/04/26 01:24:04;;;;;;;8.75;3.63;;;;;;;1.21;100.00;101797.00;5099285;28;20114;-83
2023/04/26 01:26:31;;;;;;;12.05;4.72;;;;;;;1.15;100.00;101794.84;5098772;28;20055;-82
2023/04/26 01:28:57;;;;;;;12.95;3.88;;;;;;;1.09;100.00;101801.56;5099295;28;20059;-82
2023/04/26 01:31:22;;;;;;;9.75;3.90;;;;;;;1.01;100.00;101802.19;5082062;28;20126;-82
2023/04/26 01:33:48;;;;;;;11.15;4.13;;;;;;;0.96;100.00;101803.56;5098976;28;20062;-83
2023/04/26 01:36:13;;;;;;;10.33;4.37;;;;;;;0.92;100.00;101802.16;5082238;28;20032;-83
2023/04/26 01:38:38;;;;;;;12.37;4.50;;;;;;;0.86;100.00;101803.50;5098861;28;20118;-82
2023/04/26 01:41:04;;;;;;;13.27;4.20;;;;;;;0.84;100.00;101808.97;5098734;28;20027;-83
2023/04/26 01:43:29;;;;;;;11.60;3.90;;;;;;;0.81;100.00;101813.72;5081970;28;20032;-82
2023/04/26 01:45:55;;;;;;;13.93;4.13;;;;;;;0.79;100.00;101811.16;5099198;28;20032;-82
2023/04/26 01:48:20;;;;;;;11.18;4.05;;;;;;;0.75;100.00;101800.88;5081711;28;20035;-82
2023/04/26 01:50:46;;;;;;;11.80;4.07;;;;;;;0.76;100.00;101797.22;5098618;28;20129;-82
2023/04/26 01:53:11;;;;;;;9.40;3.70;;;;;;;0.75;100.00;101791.03;5098737;28;20111;-82
2023/04/26 01:55:36;;;;;;;11.73;4.50;;;;;;;0.76;100.00;101799.91;5081584;28;20031;-82
2023/04/26 01:58:02;;;;;;;12.13;4.50;;;;;;;0.73;100.00;101809.00;5117050;28;20027;-82
2023/04/26 02:00:28;;;;;;;12.13;4.40;;;;;;;0.70;100.00;101802.09;5098796;28;20193;-82
2023/04/26 02:02:54;;;;;;;10.10;4.47;;;;;;;0.69;100.00;101802.22;5098683;28;20520;-83
2023/04/26 02:05:20;;;;;;;13.37;4.50;;;;;;;0.69;100.00;101799.56;5098388;28;20360;-82
2023/04/26 02:07:46;;;;;;;12.32;4.10;;;;;;;0.67;100.00;101798.84;5081242;28;20032;-82
2023/04/26 02:10:12;;;;;;;14.87;4.60;;;;;;;0.63;100.00;101792.06;5081663;28;20034;-82
2023/04/26 02:12:37;;;;;;;9.13;3.92;;;;;;;0.60;100.00;101805.66;5064483;28;20471;-82
2023/04/26 02:15:05;;;;;;;12.55;4.43;;;;;;;0.56;100.00;101805.09;5098099;28;20046;-82
2023/04/26 02:17:30;;;;;;;15.07;4.20;;;;;;;0.53;100.00;101805.31;5098339;28;20230;-82
2023/04/26 02:19:56;;;;;;;13.10;4.53;;;;;;;0.45;100.00;101799.75;5081038;28;20446;-82
2023/04/26 02:22:23;;;;;;;10.33;3.97;;;;;;;0.38;100.00;101794.06;5116096;28;20036;-83
2023/04/26 02:24:50;;;;;;;10.00;4.30;;;;;;;0.32;100.00;101802.56;5082142;28;20366;-82
2023/04/26 02:27:15;;;;;;;9.85;4.30;;;;;;;0.29;100.00;101806.34;5116221;28;20023;-82
2023/04/26 02:29:41;;;;;;;11.10;4.20;;;;;;;0.24;100.00;101800.53;5098153;28;20379;-83
2023/04/26 02:32:06;;;;;;;10.47;4.53;;;;;;;0.19;100.00;101797.38;5097804;28;20544;-83
2023/04/26 02:34:32;;;;;;;11.17;4.10;;;;;;;0.15;100.00;101794.13;5097918;28;20089;-83
2023/04/26 02:36:57;;;;;;;10.85;4.00;;;;;;;0.13;100.00;101797.88;5097584;28;20106;-83
2023/04/26 02:39:23;;;;;;;12.07;4.43;;;;;;;0.12;100.00;101801.53;5080794;28;20483;-82
2023/04/26 02:41:48;;;;;;;9.70;4.73;;;;;;;0.10;100.00;101798.97;5081298;28;20032;-82
2023/04/26 02:44:14;;;;;;;12.60;4.53;;;;;;;0.07;100.00;101798.38;5064037;28;20028;-83
2023/04/26 02:46:39;;;;;;;12.23;4.18;;;;;;;0.03;100.00;101792.44;5063917;28;20050;-82
2023/04/26 02:49:05;;;;;;;15.23;4.63;;;;;;;0.03;100.00;101789.78;5097577;28;20464;-82
2023/04/26 02:51:32;;;;;;;9.83;4.30;;;;;;;0.02;100.00;101789.91;5063467;28;20495;-82
2023/04/26 02:53:57;;;;;;;12.10;4.57;;;;;;;0.02;100.00;101800.59;5115626;28;20032;-83
2023/04/26 02:56:23;;;;;;;15.03;4.60;;;;;;;0.01;100.00;101797.03;5080484;28;20383;-82
2023/04/26 02:58:48;;;;;;;14.23;4.47;;;;;;;-0.01;100.00;101788.31;5080341;28;20028;-82
2023/04/26 03:01:14;;;;;;;11.73;4.38;;;;;;;-0.03;100.00;101787.59;5080362;28;20031;-82
2023/04/26 03:03:39;;;;;;;10.73;4.40;;;;;;;-0.06;100.00;101782.50;5081190;28;20063;-82
2023/04/26 03:06:05;;;;;;;12.03;4.60;;;;;;;-0.10;100.00;101781.06;5097333;28;20475;-82
2023/04/26 03:08:31;;;;;;;11.70;4.18;;;;;;;-0.16;100.00;101774.41;5097941;28;20063;-82
2023/04/26 03:10:56;;;;;;;15.93;4.80;;;;;;;-0.17;100.00;101779.84;5080076;28;20475;-82
2023/04/26 03:13:25;;;;;;;13.83;4.87;;;;;;;-0.17;100.00;101777.19;5079738;28;20083;-82
2023/04/26 03:15:52;;;;;;;13.60;4.80;;;;;;;-0.20;100.00;101786.28;5080403;28;20082;-82
2023/04/26 03:18:17;;;;;;;12.52;5.15;;;;;;;-0.21;100.00;101781.91;5064066;28;20476;-82
2023/04/26 03:20:43;;;;;;;10.87;4.50;;;;;;;-0.20;100.00;101781.78;5096923;28;20030;-83
2023/04/26 03:23:08;;;;;;;14.70;4.47;;;;;;;-0.20;100.00;101772.94;5097126;28;20036;-81
2023/04/26 03:25:34;;;;;;;11.00;4.77;;;;;;;-0.20;100.00;101779.09;5096578;28;20051;-82
2023/04/26 03:27:59;;;;;;;14.52;4.95;;;;;;;-0.16;100.00;101777.06;5079830;28;20039;-82
2023/04/26 03:30:25;;;;;;;19.27;5.10;;;;;;;-0.12;100.00;101775.81;5096890;28;20472;-82
2023/04/26 03:32:51;;;;;;;14.27;5.23;;;;;;;-0.11;100.00;101776.69;5096660;28;20525;-82
2023/04/26 03:35:17;;;;;;;12.38;5.18;;;;;;;-0.15;100.00;101781.41;5096585;28;20128;-82
2023/04/26 03:37:43;;;;;;;17.57;5.70;;;;;;;-0.20;100.00;101772.94;5079877;28;20120;-83
2023/04/26 03:40:09;;;;;;;11.30;5.20;;;;;;;-0.23;100.00;101767.84;5080070;28;20036;-82
2023/04/26 03:42:35;;;;;;;13.60;5.03;;;;;;;-0.26;100.00;101768.94;5079786;28;20027;-82
2023/04/26 03:45:02;;;;;;;13.00;5.10;;;;;;;-0.30;100.00;101764.81;5096104;28;20383;-82
2023/04/26 03:47:28;;;;;;;13.10;5.45;;;;;;;-0.34;100.00;101768.69;5096496;28;20059;-82
2023/04/26 03:49:54;;;;;;;12.13;5.38;;;;;;;-0.34;100.00;101767.84;5096349;28;20028;-83
2023/04/26 03:52:19;;;;;;;17.30;5.17;;;;;;;-0.34;100.00;101762.50;5114536;28;20032;-82
2023/04/26 03:54:45;;;;;;;12.82;5.47;;;;;;;-0.35;100.00;101767.00;5096735;28;20037;-82
2023/04/26 03:57:10;;;;;;;17.67;5.00;;;;;;;-0.34;100.00;101779.34;5096363;28;20472;-82
2023/04/26 03:59:36;;;;;;;11.77;5.47;;;;;;;-0.36;100.00;101775.97;5095919;28;20032;-83
2023/04/26 04:02:02;;;;;;;16.48;6.05;;;;;;;-0.35;100.00;101780.34;5079423;28;20156;-82
2023/04/26 04:04:27;;;;;;;12.63;5.47;;;;;;;-0.38;100.00;101775.25;5096200;28;20027;-82
2023/04/26 04:06:52;;;;;;;14.07;5.27;;;;;;;-0.35;100.00;101775.00;5096042;28;20031;-83
2023/04/26 04:09:18;;;;;;;12.20;5.95;;;;;;;-0.33;100.00;101772.22;5078868;28;20301;-82
2023/04/26 04:11:44;;;;;;;11.80;5.10;;;;;;;-0.37;100.00;101772.47;5079044;28;20080;-83
2023/04/26 04:14:09;;;;;;;11.30;5.38;;;;;;;-0.40;100.00;101775.38;5096578;28;20028;-82
2023/04/26 04:16:35;;;;;;;12.93;5.57;;;;;;;-0.38;100.00;101773.41;5114489;28;20079;-82
2023/04/26 04:19:00;;;;;;;15.33;6.37;;;;;;;-0.38;100.00;101772.59;5114225;28;20027;-82
2023/04/26 04:21:26;;;;;;;13.10;5.22;;;;;;;-0.36;100.00;101771.47;5078983;28;20039;-82
2023/04/26 04:23:52;;;;;;;13.98;6.00;;;;;;;-0.33;100.00;101775.72;5096427;28;20040;-82
2023/04/26 04:26:18;;;;;;;11.80;5.35;;;;;;;-0.31;100.00;101772.94;5113600;28;20063;-82
2023/04/26 04:28:44;;;;;;;10.00;5.47;;;;;;;-0.31;100.00;101773.81;5114459;28;20027;-82
2023/04/26 04:31:10;;;;;;;13.93;5.95;;;;;;;-0.30;100.00;101779.97;5113830;28;20043;-83
2023/04/26 04:33:35;;;;;;;17.03;6.20;;;;;;;-0.33;100.00;101778.38;5078720;28;20036;-83
2023/04/26 04:36:01;;;;;;;10.98;5.60;;;;;;;-0.32;100.00;101780.09;5079227;28;20032;-82
2023/04/26 04:38:28;;;;;;;16.67;5.70;;;;;;;-0.30;100.00;101774.63;5062232;28;20390;-82
2023/04/26 04:40:53;;;;;;;17.17;6.32;;;;;;;-0.28;100.00;101781.56;5096039;28;20035;-82
2023/04/26 04:43:19;;;;;;;17.97;5.97;;;;;;;-0.25;100.00;101783.97;5078948;28;20028;-82
2023/04/26 04:45:44;;;;;;;13.87;6.07;;;;;;;-0.21;100.00;101793.44;5062159;28;20035;-82
2023/04/26 04:48:10;;;;;;;15.15;5.85;;;;;;;-0.16;100.00;101787.72;5113707;28;20024;-82
2023/04/26 04:50:37;;;;;;;20.20;6.43;;;;;;;-0.11;100.00;101790.03;5079655;28;20031;-82
2023/04/26 04:53:03;;;;;;;17.75;6.78;;;;;;;-0.07;100.00;101797.66;5078612;28;20088;-82
2023/04/26 04:55:28;;;;;;;14.17;5.93;;;;;;;-0.02;100.00;101800.81;5078978;28;20418;-82
2023/04/26 04:57:53;;;;;;;14.18;6.63;;;;;;;0.06;100.00;101802.00;5078914;28;20122;-82
2023/04/26 05:00:20;;;;;;;20.83;7.00;;;;;;;0.11;100.00;101806.00;5079011;28;20035;-82
2023/04/26 05:02:45;;;;;;;15.65;6.38;;;;;;;0.17;100.00;101802.84;5062637;28;20023;-82
2023/04/26 05:05:11;;;;;;;15.45;6.93;;;;;;;0.25;100.00;101801.38;5062873;28;20032;-83
2023/04/26 05:07:36;;;;;;;16.27;7.70;;;;;;;0.33;100.00;101805.13;5078515;28;20376;-82
2023/04/26 05:10:02;;;;;;;17.30;8.10;;;;;;;0.42;100.00;101805.34;5095525;28;20032;-82
2023/04/26 05:12:28;;;;;;;18.80;6.95;;;;;;;0.49;100.00;101806.56;5095440;28;20062;-82
2023/04/26 05:14:53;;;;;;;21.48;7.88;;;;;;;0.57;100.00;101801.41;5095658;28;20069;-82
2023/04/26 05:17:19;;;;;;;17.20;7.37;;;;;;;0.66;100.00;101810.50;5078646;28;20023;-82
2023/04/26 05:19:44;;;;;;;19.57;7.10;;;;;;;0.76;100.00;101808.75;5113657;28;20033;-82
2023/04/26 05:22:16;;;;;;;18.58;7.00;;;;;;;0.87;100.00;101807.84;5061799;28;20050;-82
2023/04/26 05:24:43;;;;;;;20.73;7.33;;;;;;;0.97;100.00;101808.78;5095625;28;20031;-83
2023/04/26 05:27:09;;;;;;;16.08;7.55;;;;;;;1.08;100.00;101810.56;5078868;28;20490;-82
2023/04/26 05:29:34;;;;;;;21.30;7.50;;;;;;;1.21;100.00;101810.34;5078521;28;20028;-82
2023/04/26 05:31:59;;;;;;;14.97;7.60;;;;;;;1.31;100.00;101815.78;5078374;28;20023;-83
2023/04/26 05:34:25;;;;;;;20.92;8.10;;;;;;;1.39;100.00;101813.31;5078332;28;20749;-82
2023/04/26 05:36:50;;;;;;;20.47;7.70;;;;;;;1.47;100.00;101815.31;5078119;28;20484;-82
2023/04/26 05:39:18;;;;;;;15.93;7.37;;;;;;;1.56;100.00;101812.69;5096616;28;20027;-82
2023/04/26 05:41:43;;;;;;;17.33;7.57;;;;;;;1.64;100.00;101806.69;5082031;28;20038;-82
2023/04/26 05:44:09;;;;;;;17.23;6.93;;;;;;;1.71;100.00;101809.66;5081706;28;20387;-83
2023/04/26 05:46:34;;;;;;;17.70;7.13;;;;;;;1.76;100.00;101815.47;5116911;28;20036;-83
2023/04/26 05:49:00;;;;;;;17.30;6.67;;;;;;;1.84;100.00;101815.63;5099173;28;20137;-83
2023/04/26 05:51:26;;;;;;;16.37;7.13;;;;;;;1.95;100.00;101813.84;5116854;28;20111;-83
2023/04/26 05:53:52;;;;;;;13.88;7.25;;;;;;;2.10;100.00;101810.66;5098557;28;20024;-83
2023/04/26 05:56:17;;;;;;;15.90;7.37;;;;;;;2.22;100.00;101799.84;5116776;28;20035;-84
2023/04/26 05:58:43;;;;;;;22.40;7.43;;;;;;;2.40;100.00;101802.72;5081290;28;20032;-83
2023/04/26 06:01:08;;;;;;;17.93;8.00;;;;;;;2.65;100.00;101806.69;5081603;28;20051;-83
2023/04/26 06:03:33;;;;;;;19.47;7.97;;;;;;;2.87;100.00;101799.38;5098387;28;20493;-83
2023/04/26 06:05:59;;;;;;;20.93;7.77;;;;;;;3.12;100.00;101808.66;5081459;28;20036;-83
2023/04/26 06:08:27;;;;;;;15.87;7.37;;;;;;;3.33;100.00;101812.00;5081384;28;20106;-83
2023/04/26 06:10:52;;;;;;;15.80;6.68;;;;;;;3.55;100.00;101803.78;5065108;28;20024;-83
2023/04/26 06:13:17;;;;;;;18.23;8.17;;;;;;;3.65;100.00;101800.06;5116513;28;20066;-83
2023/04/26 06:15:43;;;;;;;15.45;7.10;;;;;;;3.71;100.00;101812.06;5116635;28;20120;-83
2023/04/26 06:18:08;;;;;;;17.27;7.67;;;;;;;3.77;100.00;101818.69;5065038;28;20030;-83
2023/04/26 06:20:37;;;;;;;17.33;7.47;;;;;;;3.84;100.00;101822.47;5064743;28;20543;-82
2023/04/26 06:23:02;;;;;;;18.55;7.78;;;;;;;3.86;100.00;101818.63;5080997;28;20034;-82
2023/04/26 06:25:28;;;;;;;17.37;7.70;;;;;;;3.92;100.00;101819.06;5115865;28;20041;-83
2023/04/26 06:27:53;;;;;;;18.37;7.90;;;;;;;4.02;100.00;101823.38;5097408;28;20043;-81
2023/04/26 06:30:19;;;;;;;19.40;7.60;;;;;;;4.15;100.00;101825.72;5080877;28;20039;-82
2023/04/26 06:32:44;;;;;;;16.87;7.30;;;;;;;4.36;100.00;101827.31;5080678;28;20055;-82
2023/04/26 06:35:10;;;;;;;15.47;7.13;;;;;;;4.55;100.00;101820.97;5098495;28;20027;-82
2023/04/26 06:37:36;;;;;;;16.15;7.28;;;;;;;4.67;98.48;101832.34;5098182;28;20035;-82
2023/04/26 06:40:02;;;;;;;18.02;7.55;;;;;;;4.79;97.76;101836.50;5115924;28;20035;-82
2023/04/26 06:42:28;;;;;;;15.82;6.75;;;;;;;4.90;97.04;101835.41;5116171;28;20034;-81
2023/04/26 06:44:53;;;;;;;12.30;6.50;;;;;;;5.01;96.79;101843.25;5097620;28;20122;-81
2023/04/26 06:47:18;;;;;;;16.60;6.97;;;;;;;5.12;96.73;101841.34;5080503;28;20035;-82
2023/04/26 06:49:46;;;;;;;18.60;7.13;;;;;;;5.23;96.07;101839.25;5115232;28;20130;-81
2023/04/26 06:52:12;;;;;;;15.38;6.65;;;;;;;5.41;95.13;101844.59;5115196;28;20031;-82
2023/04/26 06:54:37;;;;;;;16.70;6.73;;;;;;;5.63;95.36;101837.84;5080394;28;20130;-82
2023/04/26 06:57:02;;;;;;;17.40;6.87;;;;;;;5.69;93.31;101838.22;5097323;28;20382;-82
2023/04/26 06:59:28;;;;;;;12.40;5.97;;;;;;;5.85;92.94;101834.78;5080118;28;20082;-82
2023/04/26 07:01:53;;;;;;;15.90;5.97;;;;;;;6.00;90.74;101833.22;5097583;28;20031;-82
2023/04/26 07:04:19;;;;;;;15.00;6.20;;;;;;;6.13;90.63;101838.16;5097155;28;20177;-81
2023/04/26 07:06:45;;;;;;;12.43;5.77;;;;;;;6.29;90.26;101838.22;5097429;28;20155;-82
2023/04/26 07:09:11;;;;;;;12.85;5.68;;;;;;;6.41;89.20;101838.75;5080081;28;20031;-82
2023/04/26 07:11:36;;;;;;;12.80;5.32;;;;;;;6.56;88.10;101841.66;5096372;28;20035;-82
2023/04/26 07:14:03;;;;;;;14.40;6.17;;;;;;;6.70;88.17;101833.94;5115399;28;20031;-82
2023/04/26 07:16:28;;;;;;;13.07;5.47;;;;;;;6.83;86.80;101837.00;5079527;28;20502;-81
2023/04/26 07:18:57;;;;;;;13.83;5.40;;;;;;;6.87;85.44;101835.66;5063073;28;20056;-82
2023/04/26 07:21:22;;;;;;;10.48;5.07;;;;;;;7.07;84.64;101838.91;5080486;28;20040;-82
2023/04/26 07:23:47;;;;;;;15.50;5.20;;;;;;;7.31;84.27;101835.34;5097253;28;20482;-82
2023/04/26 07:26:13;;;;;;;13.57;4.83;;;;;;;7.43;82.31;101829.59;5080247;28;20129;-82
2023/04/26 07:28:38;;;;;;;11.25;3.78;;;;;;;7.45;80.02;101836.50;5096822;28;20496;-82
2023/04/26 07:31:04;;;;;;;13.00;4.13;;;;;;;7.31;80.19;101838.03;5097324;28;20028;-81
2023/04/26 07:33:29;;;;;;;12.77;4.70;;;;;;;7.34;80.15;101834.16;5096804;28;20498;-82
2023/04/26 07:35:56;;;;;;;10.23;4.47;;;;;;;7.32;79.50;101837.03;5097021;28;20118;-82
2023/04/26 07:38:22;;;;;;;13.20;4.10;;;;;;;7.35;79.46;101831.28;5079966;28;20054;-82
2023/04/26 07:40:48;;;;;;;9.70;4.43;;;;;;;7.41;79.58;101826.22;5080320;28;20023;-82
2023/04/26 07:43:16;;;;;;;11.00;3.75;;;;;;;7.49;78.16;101821.66;5114649;28;20385;-82
2023/04/26 07:45:42;;;;;;;16.17;3.90;;;;;;;7.84;78.76;101816.84;5096406;28;20482;-82
2023/04/26 07:48:08;;;;;;;7.13;3.73;;;;;;;8.07;77.27;101816.94;5096545;28;20036;-82
2023/04/26 07:50:33;;;;;;;9.10;3.65;;;;;;;8.28;75.43;101822.75;5096313;28;20028;-81
2023/04/26 07:52:58;;;;;;;6.70;2.63;;;;;;;8.32;72.15;101816.81;5079243;28;20027;-82
2023/04/26 07:55:24;;;;;;;9.63;3.20;;;;;;;8.34;72.39;101819.34;5096427;28;20030;-81
2023/04/26 07:57:50;;;;;;;13.07;3.00;;;;;;;8.48;70.30;101823.22;5062711;28;20039;-82
2023/04/26 08:00:16;;;;;;;10.67;3.30;;;;;;;8.58;71.21;101824.66;5079242;28;20027;-82
2023/04/26 08:02:41;;;;;;;10.65;1.75;;;;;;;8.76;67.23;101829.78;5079001;28;20028;-82
2023/04/26 08:05:07;;;;;;;7.80;2.07;;;;;;;8.70;68.07;101830.50;5095752;28;20029;-82
2023/04/26 08:07:33;;;;;;;9.52;2.00;;;;;;;8.75;67.08;101836.22;5113927;28;20107;-82
2023/04/26 08:09:58;;;;;;;5.40;1.90;;;;;;;8.96;66.18;101840.13;5096243;28;20540;-82
2023/04/26 08:12:24;;;;;;;5.70;2.17;;;;;;;9.20;64.67;101841.81;5095546;28;20075;-82
2023/04/26 08:14:49;;;;;;;8.82;1.90;;;;;;;9.47;63.47;101834.97;5095645;28;20027;-82
2023/04/26 08:17:18;;;;;;;5.00;1.70;;;;;;;9.71;61.91;101840.31;5096466;28;20455;-82
2023/04/26 08:19:43;;;;;;;7.32;1.98;;;;;;;9.86;61.02;101838.44;5079371;28;20024;-82
2023/04/26 08:22:09;;;;;;;9.53;1.67;;;;;;;9.71;58.73;101840.31;5079806;28;20028;-82
2023/04/26 08:24:34;;;;;;;3.90;1.25;;;;;;;9.60;57.79;101830.78;5095924;28;20028;-82
2023/04/26 08:27:00;;;;;;;6.77;1.10;;;;;;;9.53;56.94;101827.97;5114686;28;20043;-82
2023/04/26 08:29:26;;;;;;;3.17;1.00;;;;;;;9.60;56.99;101830.78;5095954;28;20031;-82
2023/04/26 08:31:53;;;;;;;5.82;1.50;;;;;;;9.72;57.22;101825.75;5079051;28;20031;-82
2023/04/26 08:34:18;;;;;;;4.85;1.50;;;;;;;9.95;57.96;101834.66;5095583;28;20039;-82
2023/04/26 08:36:44;;;;;;;5.93;1.17;;;;;;;10.27;56.54;101829.84;5095786;28;20483;-82
2023/04/26 08:39:11;;;;;;;5.50;1.20;;;;;;;10.50;54.67;101820.75;5079629;28;20027;-82
2023/04/26 08:41:42;;;;;;;5.57;1.23;;;;;;;10.64;52.86;101829.88;5096035;28;20112;-82
2023/04/26 08:44:08;;;;;;;2.95;0.80;;;;;;;10.40;52.88;101826.47;5095969;28;20471;-82
2023/04/26 08:46:40;;;;;;;6.50;0.90;;;;;;;10.49;53.65;101819.91;5078748;28;20043;-82
2023/04/26 08:49:21;;;;;;;5.45;1.23;;;;;;;10.51;54.41;101817.00;5096283;28;20115;-82
2023/04/26 08:51:47;;;;;;;6.63;0.95;;;;;;;10.57;51.21;101818.97;5095360;28;20019;-81
2023/04/26 08:54:14;;;;;;;9.50;2.17;;;;;;;10.33;52.41;101820.09;5095991;28;20035;-81
2023/04/26 08:56:40;;;;;;;7.38;1.20;;;;;;;10.22;53.91;101826.88;5061694;28;20031;-82
2023/04/26 08:59:07;;;;;;;4.95;1.40;;;;;;;10.29;53.95;101822.38;5113802;28;20171;-81
2023/04/26 09:01:33;;;;;;;3.65;1.17;;;;;;;10.50;54.17;101824.31;5113436;28;20063;-81
2023/04/26 09:03:59;;;;;;;6.87;1.60;;;;;;;10.44;52.49;101818.81;5113744;28;20035;-81
2023/04/26 09:06:27;;;;;;;5.25;1.42;;;;;;;10.42;53.76;101816.28;5113408;28;20492;-81
2023/04/26 09:08:54;;;;;;;7.67;1.67;;;;;;;10.51;53.07;101827.84;5095669;28;20463;-81
2023/04/26 09:11:19;;;;;;;7.63;2.13;;;;;;;10.42;53.70;101820.88;5113155;28;20016;-81
2023/04/26 09:13:44;;;;;;;4.57;1.73;;;;;;;10.49;53.47;101814.47;5097594;28;20051;-81
2023/04/26 09:16:10;;;;;;;4.28;1.77;;;;;;;10.73;52.29;101812.44;5082563;28;20039;-81
2023/04/26 09:18:48;;;;;;;6.70;1.87;;;;;;;11.19;52.74;101811.19;5082092;28;20536;-82
2023/04/26 09:21:16;;;;;;;10.63;2.08;;;;;;;11.33;49.16;101804.84;5117502;28;20055;-81
2023/04/26 09:23:59;;;;;;;5.53;1.55;;;;;;;11.50;51.09;101799.09;5082278;28;20027;-82
2023/04/26 09:26:25;;;;;;;6.10;1.70;;;;;;;11.77;49.19;101798.25;5117381;28;20059;-82
2023/04/26 09:29:10;;;;;;;7.32;1.83;;;;;;;11.92;49.75;101800.00;5117217;28;20118;-81
2023/04/26 09:31:44;;;;;;;4.18;1.55;;;;;;;12.16;49.50;101798.69;5099085;28;20027;-81
2023/04/26 09:34:11;;;;;;;4.57;1.90;;;;;;;12.49;46.30;101808.00;5082095;28;20051;-81
2023/04/26 09:36:47;;;;;;;8.27;2.10;;;;;;;12.99;47.41;101797.63;5098963;28;20070;-81
2023/04/26 09:39:13;;;;;;;7.47;1.87;;;;;;;13.32;44.40;101810.44;5117125;28;20114;-82
2023/04/26 09:41:43;;;;;;;4.90;1.75;;;;;;;13.76;44.37;101808.09;5098966;28;20062;-82
2023/04/26 09:44:22;;;;;;;7.50;2.25;;;;;;;14.27;44.95;101809.19;5117292;28;20115;-82
2023/04/26 09:47:16;;;;;;;5.93;1.88;;;;;;;14.77;45.64;101798.44;5081718;28;20039;-82
2023/04/26 09:49:47;;;;;;;3.90;1.75;;;;;;;14.93;41.17;101797.09;5060132;28;20426;-84
2023/04/26 09:52:15;;;;;;;5.13;1.50;;;;;;;15.31;39.12;101798.03;5116444;28;20038;-81
2023/04/26 09:54:42;;;;;;;5.65;1.40;;;;;;;15.47;39.66;101792.00;5116573;28;20203;-82
2023/04/26 09:57:08;;;;;;;5.32;2.17;;;;;;;15.27;38.83;101798.47;5098356;28;20528;-82
2023/04/26 09:59:42;;;;;;;7.00;2.05;;;;;;;14.92;39.06;101789.94;5098562;28;20036;-82
2023/04/26 10:02:28;;;;;;;4.03;1.77;;;;;;;14.68;40.31;101794.31;5116638;28;20092;-82
2023/04/26 10:04:55;;;;;;;6.50;1.83;;;;;;;14.20;39.36;101793.69;5098990;28;20038;-81
2023/04/26 10:07:23;;;;;;;4.57;1.75;;;;;;;13.91;40.58;101792.34;5098886;28;20097;-82
2023/04/26 10:09:49;;;;;;;4.78;2.10;;;;;;;13.36;40.91;101806.28;5116959;28;20035;-81
2023/04/26 10:12:17;;;;;;;3.88;1.83;;;;;;;13.15;42.12;101804.56;5116451;28;20394;-82
2023/04/26 10:14:43;;;;;;;6.15;2.13;;;;;;;12.99;42.06;101800.34;5116420;28;20110;-82
2023/04/26 10:17:10;;;;;;;4.70;1.80;;;;;;;13.13;42.29;101801.22;5098164;28;20521;-81
2023/04/26 10:19:37;;;;;;;5.60;2.15;;;;;;;13.19;43.25;101800.38;5082036;28;20032;-81
2023/04/26 10:22:24;;;;;;;4.55;2.35;;;;;;;13.34;44.46;101800.19;5098121;28;20428;-82
2023/04/26 10:24:52;;;;;;;7.40;2.15;;;;;;;13.04;42.28;101797.03;5097101;28;20069;-82
2023/04/26 10:27:43;;;;;;;6.65;2.45;;;;;;;12.97;43.71;101806.00;5097631;28;20024;-82
2023/04/26 10:30:11;;;;;;;6.40;2.30;;;;;;;12.79;42.99;101797.63;5097337;28;20036;-82
2023/04/26 10:32:51;;;;;;;5.68;2.13;;;;;;;12.93;44.36;101795.75;5115894;28;20053;-82
2023/04/26 10:35:21;;;;;;;7.57;2.60;;;;;;;12.99;43.16;101794.91;5097310;28;20045;-82
2023/04/26 10:37:59;;;;;;;5.65;2.30;;;;;;;13.08;44.26;101798.25;5097302;28;20043;-82
2023/04/26 10:40:38;;;;;;;10.68;2.35;;;;;;;13.06;44.39;101800.38;5115814;28;20024;-82
2023/04/26 10:43:17;;;;;;;8.60;2.63;;;;;;;13.01;44.39;101789.25;5098333;28;20032;-81
2023/04/26 10:45:46;;;;;;;9.15;2.35;;;;;;;13.00;44.03;101785.69;5116065;28;20032;-82
2023/04/26 10:48:21;;;;;;;5.28;2.38;;;;;;;13.04;44.07;101783.41;5115766;28;20371;-82
2023/04/26 10:51:09;;;;;;;9.55;2.70;;;;;;;13.14;44.39;101786.56;5097451;28;20036;-82
2023/04/26 10:53:34;;;;;;;6.40;2.78;;;;;;;13.10;43.70;101783.41;5116479;28;20026;-81
2023/04/26 10:55:59;;;;;;;5.43;2.60;;;;;;;13.24;43.12;101788.84;5115602;28;20027;-81
2023/04/26 10:58:29;;;;;;;7.47;2.90;;;;;;;13.53;43.56;101779.41;5080276;28;20123;-82
2023/04/26 11:01:19;;;;;;;6.32;2.63;;;;;;;13.80;43.53;101785.66;5096726;28;20026;-81
2023/04/26 11:03:57;;;;;;;7.17;2.80;;;;;;;13.65;42.75;101782.31;5084951;28;20028;-82
2023/04/26 11:06:24;;;;;;;7.28;2.47;;;;;;;13.77;42.42;101782.50;5097400;28;20027;-82
2023/04/26 11:08:50;;;;;;;8.18;2.72;;;;;;;14.08;41.14;101778.22;5097150;28;20123;-81
2023/04/26 11:11:18;;;;;;;8.05;2.58;;;;;;;14.05;40.50;101776.75;5096588;28;20563;-81
2023/04/26 11:13:45;;;;;;;7.43;2.92;;;;;;;14.20;40.50;101771.00;5096447;28;20047;-82
2023/04/26 11:16:13;;;;;;;6.63;2.67;;;;;;;14.95;39.33;101775.00;5115213;28;20031;-81
2023/04/26 11:18:41;;;;;;;6.05;2.63;;;;;;;16.27;35.74;101768.41;5080101;28;20082;-82